createdAt,value
2023-03-29T00:02:13.316Z,101535.08
2023-03-29T00:07:23.875Z,101528.56
2023-03-29T00:12:31.523Z,101532.71
2023-03-29T00:17:38.750Z,101529.48
2023-03-29T00:22:46.919Z,101526.90
2023-03-29T00:27:54.001Z,101530.20
2023-03-29T00:33:01.191Z,101533.02
2023-03-29T00:38:08.388Z,101527.97
2023-03-29T00:43:16.952Z,101522.27
2023-03-29T00:48:29.112Z,101514.36
2023-03-29T00:53:39.631Z,101509.29
2023-03-29T00:58:55.086Z,101508.27
2023-03-29T01:04:08.621Z,101505.70
2023-03-29T01:09:17.500Z,101502.75
2023-03-29T01:14:31.168Z,101508.24
2023-03-29T01:19:46.584Z,101508.14
2023-03-29T01:25:06.612Z,101504.31
2023-03-29T01:30:17.519Z,101496.55
2023-03-29T01:35:32.740Z,101497.30
2023-03-29T01:40:40.300Z,101493.23
2023-03-29T01:45:51.730Z,101492.27
2023-03-29T01:51:06.369Z,101487.17
2023-03-29T01:56:19.927Z,101487.81
2023-03-29T02:01:33.190Z,101483.23
2023-03-29T02:06:41.776Z,101479.83
2023-03-29T02:11:49.995Z,101480.08
2023-03-29T02:16:57.508Z,101481.08
2023-03-29T02:22:06.794Z,101484.83
2023-03-29T02:27:14.067Z,101485.70
2023-03-29T02:32:27.511Z,101486.08
2023-03-29T02:37:41.111Z,101487.96
2023-03-29T02:42:50.355Z,101496.92
2023-03-29T02:48:01.465Z,101492.35
2023-03-29T02:53:16.039Z,101486.84
2023-03-29T02:58:26.808Z,101489.60
2023-03-29T03:03:34.311Z,101485.69
2023-03-29T03:08:42.598Z,101487.13
2023-03-29T03:13:51.760Z,101482.13
2023-03-29T03:18:59.153Z,101473.70
2023-03-29T03:24:08.473Z,101474.71
2023-03-29T03:29:16.432Z,101475.29
2023-03-29T03:34:45.119Z,101478.61
2023-03-29T03:39:52.460Z,101474.83
2023-03-29T03:45:00.224Z,101469.27
2023-03-29T03:50:33.642Z,101467.66
2023-03-29T03:55:41.689Z,101467.02
2023-03-29T04:00:53.441Z,101466.27
2023-03-29T04:06:10.043Z,101468.70
2023-03-29T04:11:37.404Z,101460.59
2023-03-29T04:16:45.421Z,101460.98
2023-03-29T04:22:18.199Z,101459.25
2023-03-29T04:27:26.047Z,101463.23
2023-03-29T04:32:34.221Z,101462.90
2023-03-29T04:37:47.035Z,101458.86
2023-03-29T04:42:56.457Z,101458.02
2023-03-29T04:48:04.203Z,101454.85
2023-03-29T04:53:10.066Z,101452.45
2023-03-29T04:58:18.983Z,101449.48
2023-03-29T05:03:27.905Z,101441.06
2023-03-29T05:08:41.239Z,101436.51
2023-03-29T05:14:18.243Z,101437.08
2023-03-29T05:19:26.000Z,101434.76
2023-03-29T05:24:33.452Z,101431.02
2023-03-29T05:29:52.490Z,101429.77
2023-03-29T05:35:11.451Z,101435.15
2023-03-29T05:40:20.029Z,101433.30
2023-03-29T05:45:53.395Z,101429.63
2023-03-29T05:51:03.702Z,101423.74
2023-03-29T05:56:12.323Z,101421.08
2023-03-29T06:01:20.618Z,101417.20
2023-03-29T06:06:48.773Z,101411.40
2023-03-29T06:11:57.716Z,101408.70
2023-03-29T06:17:25.241Z,101404.80
2023-03-29T06:22:33.389Z,101405.36
2023-03-29T06:27:40.904Z,101400.59
2023-03-29T06:32:50.656Z,101399.79
2023-03-29T06:38:11.402Z,101401.04
2023-03-29T06:43:47.983Z,101406.63
2023-03-29T06:48:56.351Z,101403.13
2023-03-29T06:54:06.243Z,101399.20
2023-03-29T06:59:14.782Z,101397.23
2023-03-29T07:04:46.292Z,101390.77
2023-03-29T07:10:01.914Z,101383.34
2023-03-29T07:15:33.308Z,101379.67
2023-03-29T07:21:07.941Z,101374.91
2023-03-29T07:26:28.541Z,101370.63
2023-03-29T07:31:41.103Z,101365.32
2023-03-29T07:37:11.211Z,101360.19
2023-03-29T07:42:22.654Z,101354.42
2023-03-29T07:47:31.826Z,101356.43
2023-03-29T07:52:42.373Z,101353.68
2023-03-29T07:57:51.529Z,101351.06
2023-03-29T08:03:05.843Z,101345.70
2023-03-29T08:08:14.406Z,101345.34
2023-03-29T08:13:30.825Z,101341.02
2023-03-29T08:19:01.226Z,101336.27
2023-03-29T08:24:21.486Z,101331.75
2023-03-29T08:29:33.431Z,101327.59
2023-03-29T08:34:41.235Z,101327.24
2023-03-29T08:40:09.183Z,101319.63
2023-03-29T08:45:35.616Z,101312.81
2023-03-29T08:50:50.157Z,101307.17
2023-03-29T08:56:01.931Z,101302.90
2023-03-29T09:01:35.182Z,101298.16
2023-03-29T09:06:43.557Z,101294.80
2023-03-29T09:12:12.079Z,101293.57
2023-03-29T09:17:32.173Z,101294.16
2023-03-29T09:22:49.932Z,101296.53
2023-03-29T09:28:05.782Z,101291.74
2023-03-29T09:33:27.273Z,101287.02
2023-03-29T09:39:05.010Z,101277.52
2023-03-29T09:44:30.234Z,101280.05
2023-03-29T09:49:47.217Z,101273.64
2023-03-29T09:54:56.099Z,101273.45
2023-03-29T10:00:36.939Z,101274.61
2023-03-29T10:05:47.322Z,101271.16
2023-03-29T10:10:57.729Z,101264.83
2023-03-29T10:16:08.326Z,101259.89
2023-03-29T10:21:20.318Z,101257.45
2023-03-29T10:26:32.952Z,101256.79
2023-03-29T10:31:42.794Z,101248.45
2023-03-29T10:36:57.684Z,101248.75
2023-03-29T10:42:06.327Z,101250.92
2023-03-29T10:47:19.762Z,101247.17
2023-03-29T10:52:27.934Z,101244.62
2023-03-29T10:57:46.280Z,101234.38
2023-03-29T11:03:00.557Z,101228.73
2023-03-29T11:08:27.961Z,101232.97
2023-03-29T11:13:44.393Z,101215.64
2023-03-29T11:19:05.195Z,101213.42
2023-03-29T11:24:48.904Z,101200.94
2023-03-29T11:30:08.224Z,101195.73
2023-03-29T11:35:31.475Z,101187.70
2023-03-29T11:40:48.313Z,101183.77
2023-03-29T11:46:02.712Z,101177.36
2023-03-29T11:51:18.213Z,101165.52
2023-03-29T11:56:32.480Z,101154.22
2023-03-29T12:01:44.857Z,101149.41
2023-03-29T12:07:03.051Z,101144.35
2023-03-29T12:12:16.334Z,101139.40
2023-03-29T12:17:29.796Z,101137.55
2023-03-29T12:22:38.575Z,101133.76
2023-03-29T12:27:55.033Z,101128.68
2023-03-29T12:33:21.883Z,101120.88
2023-03-29T12:38:35.858Z,101117.02
2023-03-29T12:44:09.556Z,101112.48
2023-03-29T12:49:48.517Z,101107.02
2023-03-29T12:55:01.579Z,101097.19
2023-03-29T13:00:28.204Z,101102.32
2023-03-29T13:05:39.429Z,101103.67
2023-03-29T13:10:55.894Z,101099.91
2023-03-29T13:16:15.929Z,101092.70
2023-03-29T13:21:32.328Z,101090.09
2023-03-29T13:26:54.360Z,101091.11
2023-03-29T13:32:18.139Z,101087.73
2023-03-29T13:37:40.416Z,101075.05
2023-03-29T13:43:06.240Z,101071.70
2023-03-29T13:48:29.502Z,101069.02
2023-03-29T13:53:46.340Z,101071.76
2023-03-29T13:59:19.025Z,101058.89
2023-03-29T14:04:30.724Z,101047.18
2023-03-29T14:09:43.736Z,101043.29
2023-03-29T14:14:59.198Z,101042.39
2023-03-29T14:20:10.464Z,101037.77
2023-03-29T14:25:21.391Z,101031.17
2023-03-29T14:30:32.124Z,101029.45
2023-03-29T14:35:40.565Z,101022.74
2023-03-29T14:40:48.554Z,101022.05
2023-03-29T14:45:54.552Z,101013.68
2023-03-29T14:51:02.773Z,101007.10
2023-03-29T14:56:13.907Z,100999.77
2023-03-29T15:01:25.346Z,100994.70
2023-03-29T15:06:33.381Z,100986.88
2023-03-29T15:11:40.012Z,100973.52
2023-03-29T15:16:49.476Z,100966.83
2023-03-29T15:21:56.835Z,100961.61
2023-03-29T15:27:12.436Z,100961.89
2023-03-29T15:32:34.961Z,100963.45
2023-03-29T15:37:44.587Z,100956.17
2023-03-29T15:42:52.274Z,100951.92
2023-03-29T15:48:02.075Z,100949.79
2023-03-29T15:53:15.026Z,100938.99
2023-03-29T15:58:25.953Z,100926.08
2023-03-29T16:03:33.319Z,100924.51
2023-03-29T16:08:42.072Z,100925.08
2023-03-29T16:13:49.447Z,100919.47
2023-03-29T16:18:56.926Z,100924.41
2023-03-29T16:24:04.569Z,100919.60
2023-03-29T16:29:12.513Z,100917.15
2023-03-29T16:34:20.337Z,100913.05
2023-03-29T16:39:27.828Z,100911.39
2023-03-29T16:44:34.972Z,100909.39
2023-03-29T16:49:44.341Z,100907.97
2023-03-29T16:54:54.353Z,100908.64
2023-03-29T17:00:01.516Z,100902.89
2023-03-29T17:05:11.195Z,100901.23
2023-03-29T17:10:19.040Z,100897.04
2023-03-29T17:15:26.580Z,100895.61
2023-03-29T17:20:33.770Z,100890.91
2023-03-29T17:25:40.994Z,100893.21
2023-03-29T17:30:49.058Z,100896.09
2023-03-29T17:35:57.811Z,100895.81
2023-03-29T17:41:08.069Z,100899.88
2023-03-29T17:46:23.463Z,100899.68
2023-03-29T17:51:31.144Z,100900.55
2023-03-29T17:56:39.695Z,100891.48
2023-03-29T18:01:46.971Z,100892.10
2023-03-29T18:06:55.127Z,100897.44
2023-03-29T18:12:02.344Z,100899.81
2023-03-29T18:17:09.838Z,100901.60
2023-03-29T18:22:17.974Z,100901.52
2023-03-29T18:27:23.481Z,100895.00
2023-03-29T18:32:30.598Z,100884.52
2023-03-29T18:37:38.025Z,100872.46
2023-03-29T18:42:45.154Z,100868.65
2023-03-29T18:47:52.511Z,100866.34
2023-03-29T18:53:02.417Z,100859.63
2023-03-29T18:58:09.676Z,100849.75
2023-03-29T19:03:16.909Z,100848.15
2023-03-29T19:08:25.845Z,100853.10
2023-03-29T19:13:33.084Z,100858.92
2023-03-29T19:18:40.270Z,100861.47
2023-03-29T19:23:47.530Z,100856.26
2023-03-29T19:28:54.635Z,100853.84
2023-03-29T19:34:19.791Z,100841.64
2023-03-29T19:39:29.570Z,100839.01
2023-03-29T19:44:38.495Z,100833.37
2023-03-29T19:49:47.095Z,100844.23
2023-03-29T19:54:54.413Z,100848.27
2023-03-29T20:00:02.214Z,100847.45
2023-03-29T20:05:21.882Z,100844.94
2023-03-29T20:10:29.339Z,100841.86
2023-03-29T20:15:36.518Z,100841.75
2023-03-29T20:20:44.758Z,100835.04
2023-03-29T20:25:52.729Z,100830.27
2023-03-29T20:30:58.302Z,100825.05
2023-03-29T20:36:06.819Z,100827.64
2023-03-29T20:41:14.339Z,100827.27
2023-03-29T20:46:24.089Z,100821.77
2023-03-29T20:51:32.225Z,100818.23
2023-03-29T20:56:42.635Z,100812.54
2023-03-29T21:01:50.528Z,100808.99
2023-03-29T21:07:00.972Z,100813.13
2023-03-29T21:12:10.479Z,100806.48
2023-03-29T21:17:17.600Z,100809.01
2023-03-29T21:22:24.804Z,100803.90
2023-03-29T21:27:31.915Z,100801.11
2023-03-29T21:32:39.186Z,100798.05
2023-03-29T21:37:46.485Z,100794.19
2023-03-29T21:42:53.608Z,100786.61
2023-03-29T21:48:01.013Z,100777.16
2023-03-29T21:53:08.616Z,100768.30
2023-03-29T21:58:16.190Z,100765.24
2023-03-29T22:03:23.412Z,100765.13
2023-03-29T22:08:30.909Z,100758.37
2023-03-29T22:13:38.946Z,100748.10
2023-03-29T22:18:44.756Z,100746.39
2023-03-29T22:23:57.071Z,100742.36
2023-03-29T22:29:04.693Z,100736.45
2023-03-29T22:34:13.036Z,100733.61
2023-03-29T22:39:20.162Z,100728.08
2023-03-29T22:44:27.293Z,100726.48
2023-03-29T22:49:34.382Z,100728.23
2023-03-29T22:54:41.439Z,100729.33
2023-03-29T22:59:48.538Z,100729.27
2023-03-29T23:04:56.948Z,100735.11
2023-03-29T23:10:04.234Z,100733.72
2023-03-29T23:15:13.876Z,100735.55
2023-03-29T23:20:21.381Z,100731.79
2023-03-29T23:25:30.190Z,100733.19
2023-03-29T23:30:38.802Z,100733.36
2023-03-29T23:35:46.828Z,100731.09
2023-03-29T23:41:01.013Z,100723.98
2023-03-29T23:46:10.813Z,100712.60
2023-03-29T23:51:23.262Z,100706.10
2023-03-29T23:56:32.646Z,100706.37
